sensor_id;sensor_type;location;lat;lon;timestamp;temperature;humidity
3752;DHT22;50827;47.014;7.652;2022-08-21T00:01:41;18.40;99.90
3752;DHT22;50827;47.014;7.652;2022-08-21T00:04:09;18.40;99.90
3752;DHT22;50827;47.014;7.652;2022-08-21T00:06:40;18.30;99.90
3752;DHT22;50827;47.014;7.652;2022-08-21T00:09:07;18.30;99.90
3752;DHT22;50827;47.014;7.652;2022-08-21T00:11:35;18.20;99.90
3752;DHT22;50827;47.014;7.652;2022-08-21T00:14:05;18.30;99.90
3752;DHT22;50827;47.014;7.652;2022-08-21T00:16:32;18.20;99.90
3752;DHT22;50827;47.014;7.652;2022-08-21T00:18:59;18.20;99.90
3752;DHT22;50827;47.014;7.652;2022-08-21T00:21:26;18.20;99.90
3752;DHT22;50827;47.014;7.652;2022-08-21T00:23:53;18.20;99.90
3752;DHT22;50827;47.014;7.652;2022-08-21T00:26:20;18.20;99.90
3752;DHT22;50827;47.014;7.652;2022-08-21T00:28:46;18.10;99.90
3752;DHT22;50827;47.014;7.652;2022-08-21T00:31:16;18.20;99.90
3752;DHT22;50827;47.014;7.652;2022-08-21T00:33:43;18.20;99.90
3752;DHT22;50827;47.014;7.652;2022-08-21T00:36:10;18.10;99.90
3752;DHT22;50827;47.014;7.652;2022-08-21T00:38:37;18.10;99.90
3752;DHT22;50827;47.014;7.652;2022-08-21T00:41:07;18.20;99.90
3752;DHT22;50827;47.014;7.652;2022-08-21T00:43:54;18.20;99.90
3752;DHT22;50827;47.014;7.652;2022-08-21T00:46:21;18.20;99.90
3752;DHT22;50827;47.014;7.652;2022-08-21T00:48:54;18.20;99.90
3752;DHT22;50827;47.014;7.652;2022-08-21T00:51:32;18.30;99.90
3752;DHT22;50827;47.014;7.652;2022-08-21T00:54:05;18.30;99.90
3752;DHT22;50827;47.014;7.652;2022-08-21T00:56:41;18.30;99.90
3752;DHT22;50827;47.014;7.652;2022-08-21T00:59:09;18.30;99.90
3752;DHT22;50827;47.014;7.652;2022-08-21T01:01:36;18.30;99.90
3752;DHT22;50827;47.014;7.652;2022-08-21T01:04:03;18.40;99.90
3752;DHT22;50827;47.014;7.652;2022-08-21T01:06:30;18.40;99.90
3752;DHT22;50827;47.014;7.652;2022-08-21T01:08:57;18.40;99.90
3752;DHT22;50827;47.014;7.652;2022-08-21T01:11:24;18.30;99.90
3752;DHT22;50827;47.014;7.652;2022-08-21T01:13:51;18.30;99.90
3752;DHT22;50827;47.014;7.652;2022-08-21T01:16:20;18.30;99.90
3752;DHT22;50827;47.014;7.652;2022-08-21T01:18:48;18.30;99.90
3752;DHT22;50827;47.014;7.652;2022-08-21T01:21:19;18.30;99.90
3752;DHT22;50827;47.014;7.652;2022-08-21T01:23:49;18.40;99.90
3752;DHT22;50827;47.014;7.652;2022-08-21T01:26:20;18.30;99.90
3752;DHT22;50827;47.014;7.652;2022-08-21T01:31:32;18.30;99.90
3752;DHT22;50827;47.014;7.652;2022-08-21T01:33:59;18.20;99.90
3752;DHT22;50827;47.014;7.652;2022-08-21T01:36:26;18.10;99.90
3752;DHT22;50827;47.014;7.652;2022-08-21T01:38:53;18.10;99.90
3752;DHT22;50827;47.014;7.652;2022-08-21T01:41:20;18.00;99.90
3752;DHT22;50827;47.014;7.652;2022-08-21T01:43:47;18.00;99.90
3752;DHT22;50827;47.014;7.652;2022-08-21T01:46:14;18.00;99.90
3752;DHT22;50827;47.014;7.652;2022-08-21T01:48:41;17.90;99.90
3752;DHT22;50827;47.014;7.652;2022-08-21T01:51:08;17.90;99.90
3752;DHT22;50827;47.014;7.652;2022-08-21T01:53:35;17.90;99.90
3752;DHT22;50827;47.014;7.652;2022-08-21T01:56:06;17.90;99.90
3752;DHT22;50827;47.014;7.652;2022-08-21T01:58:39;17.90;99.90
3752;DHT22;50827;47.014;7.652;2022-08-21T02:01:06;17.90;99.90
3752;DHT22;50827;47.014;7.652;2022-08-21T02:03:33;17.90;99.90
3752;DHT22;50827;47.014;7.652;2022-08-21T02:06:03;17.90;99.90
3752;DHT22;50827;47.014;7.652;2022-08-21T02:08:30;17.80;99.90
3752;DHT22;50827;47.014;7.652;2022-08-21T02:10:57;17.90;99.90
3752;DHT22;50827;47.014;7.652;2022-08-21T02:13:24;17.90;99.90
3752;DHT22;50827;47.014;7.652;2022-08-21T02:15:50;17.80;99.90
3752;DHT22;50827;47.014;7.652;2022-08-21T02:18:17;17.80;99.90
3752;DHT22;50827;47.014;7.652;2022-08-21T02:20:46;17.90;99.90
3752;DHT22;50827;47.014;7.652;2022-08-21T02:23:14;17.80;99.90
3752;DHT22;50827;47.014;7.652;2022-08-21T02:25:41;17.90;99.90
3752;DHT22;50827;47.014;7.652;2022-08-21T02:28:11;17.70;99.90
3752;DHT22;50827;47.014;7.652;2022-08-21T02:30:41;17.70;99.90
3752;DHT22;50827;47.014;7.652;2022-08-21T02:33:10;17.60;99.90
3752;DHT22;50827;47.014;7.652;2022-08-21T02:35:39;17.60;99.90
3752;DHT22;50827;47.014;7.652;2022-08-21T02:38:11;17.50;99.90
3752;DHT22;50827;47.014;7.652;2022-08-21T02:40:40;17.50;99.90
3752;DHT22;50827;47.014;7.652;2022-08-21T02:43:14;17.50;99.90
3752;DHT22;50827;47.014;7.652;2022-08-21T02:45:42;17.40;99.90
3752;DHT22;50827;47.014;7.652;2022-08-21T02:48:13;17.30;99.90
3752;DHT22;50827;47.014;7.652;2022-08-21T02:50:46;17.30;99.90
3752;DHT22;50827;47.014;7.652;2022-08-21T02:53:15;17.20;99.90
3752;DHT22;50827;47.014;7.652;2022-08-21T02:55:48;17.20;99.90
3752;DHT22;50827;47.014;7.652;2022-08-21T02:58:20;17.10;99.90
3752;DHT22;50827;47.014;7.652;2022-08-21T03:00:47;17.20;99.90
3752;DHT22;50827;47.014;7.652;2022-08-21T03:03:14;17.30;99.90
3752;DHT22;50827;47.014;7.652;2022-08-21T03:05:42;17.30;99.90
3752;DHT22;50827;47.014;7.652;2022-08-21T03:08:11;17.30;99.90
3752;DHT22;50827;47.014;7.652;2022-08-21T03:10:40;17.30;99.90
3752;DHT22;50827;47.014;7.652;2022-08-21T03:13:08;17.30;99.90
3752;DHT22;50827;47.014;7.652;2022-08-21T03:15:35;17.30;99.90
3752;DHT22;50827;47.014;7.652;2022-08-21T03:18:03;17.20;99.90
3752;DHT22;50827;47.014;7.652;2022-08-21T03:20:33;17.20;99.90
3752;DHT22;50827;47.014;7.652;2022-08-21T03:23:00;17.10;99.90
3752;DHT22;50827;47.014;7.652;2022-08-21T03:25:28;17.10;99.90
3752;DHT22;50827;47.014;7.652;2022-08-21T03:28:08;17.00;99.90
3752;DHT22;50827;47.014;7.652;2022-08-21T03:30:40;17.00;99.90
3752;DHT22;50827;47.014;7.652;2022-08-21T03:33:06;16.90;99.90
3752;DHT22;50827;47.014;7.652;2022-08-21T03:35:33;16.90;99.90
3752;DHT22;50827;47.014;7.652;2022-08-21T03:38:00;16.90;99.90
3752;DHT22;50827;47.014;7.652;2022-08-21T03:40:26;16.90;99.90
3752;DHT22;50827;47.014;7.652;2022-08-21T03:42:53;16.80;99.90
3752;DHT22;50827;47.014;7.652;2022-08-21T03:45:21;16.80;99.90
3752;DHT22;50827;47.014;7.652;2022-08-21T03:48:07;16.80;99.90
3752;DHT22;50827;47.014;7.652;2022-08-21T03:50:39;16.80;99.90
3752;DHT22;50827;47.014;7.652;2022-08-21T03:53:11;16.70;99.90
3752;DHT22;50827;47.014;7.652;2022-08-21T03:55:44;16.70;99.90
3752;DHT22;50827;47.014;7.652;2022-08-21T03:58:11;16.80;99.90
3752;DHT22;50827;47.014;7.652;2022-08-21T04:00:43;16.70;99.90
3752;DHT22;50827;47.014;7.652;2022-08-21T04:03:10;16.70;99.90
3752;DHT22;50827;47.014;7.652;2022-08-21T04:05:36;16.60;99.90
3752;DHT22;50827;47.014;7.652;2022-08-21T04:08:05;16.60;99.90
3752;DHT22;50827;47.014;7.652;2022-08-21T04:10:34;16.60;99.90
3752;DHT22;50827;47.014;7.652;2022-08-21T04:13:02;16.60;99.90
3752;DHT22;50827;47.014;7.652;2022-08-21T04:15:29;16.60;99.90
3752;DHT22;50827;47.014;7.652;2022-08-21T04:17:56;16.60;99.90
3752;DHT22;50827;47.014;7.652;2022-08-21T04:20:23;16.50;99.90
3752;DHT22;50827;47.014;7.652;2022-08-21T04:22:51;16.40;99.90
3752;DHT22;50827;47.014;7.652;2022-08-21T04:25:20;16.40;99.90
3752;DHT22;50827;47.014;7.652;2022-08-21T04:27:47;16.40;99.90
3752;DHT22;50827;47.014;7.652;2022-08-21T04:30:15;16.40;99.90
3752;DHT22;50827;47.014;7.652;2022-08-21T04:32:44;16.40;99.90
3752;DHT22;50827;47.014;7.652;2022-08-21T04:35:12;16.30;99.90
3752;DHT22;50827;47.014;7.652;2022-08-21T04:37:39;16.30;99.90
3752;DHT22;50827;47.014;7.652;2022-08-21T04:40:09;16.30;99.90
3752;DHT22;50827;47.014;7.652;2022-08-21T04:42:54;16.20;99.90
3752;DHT22;50827;47.014;7.652;2022-08-21T04:45:29;16.30;99.90
3752;DHT22;50827;47.014;7.652;2022-08-21T04:47:58;16.20;99.90
3752;DHT22;50827;47.014;7.652;2022-08-21T04:50:35;16.20;99.90
3752;DHT22;50827;47.014;7.652;2022-08-21T04:53:05;16.20;99.90
3752;DHT22;50827;47.014;7.652;2022-08-21T04:55:33;16.20;99.90
3752;DHT22;50827;47.014;7.652;2022-08-21T04:58:00;16.20;99.90
3752;DHT22;50827;47.014;7.652;2022-08-21T05:00:27;16.20;99.90
3752;DHT22;50827;47.014;7.652;2022-08-21T05:02:54;16.20;99.90
3752;DHT22;50827;47.014;7.652;2022-08-21T05:05:24;16.20;99.90
3752;DHT22;50827;47.014;7.652;2022-08-21T05:07:51;16.20;99.90
3752;DHT22;50827;47.014;7.652;2022-08-21T05:10:19;16.20;99.90
3752;DHT22;50827;47.014;7.652;2022-08-21T05:12:46;16.20;99.90
3752;DHT22;50827;47.014;7.652;2022-08-21T05:15:13;16.10;99.90
3752;DHT22;50827;47.014;7.652;2022-08-21T05:17:41;16.10;99.90
3752;DHT22;50827;47.014;7.652;2022-08-21T05:20:10;16.00;99.90
3752;DHT22;50827;47.014;7.652;2022-08-21T05:22:37;16.00;99.90
3752;DHT22;50827;47.014;7.652;2022-08-21T05:25:05;16.10;99.90
3752;DHT22;50827;47.014;7.652;2022-08-21T05:27:37;16.10;99.90
3752;DHT22;50827;47.014;7.652;2022-08-21T05:30:06;16.10;99.90
3752;DHT22;50827;47.014;7.652;2022-08-21T05:32:34;16.20;99.90
3752;DHT22;50827;47.014;7.652;2022-08-21T05:35:05;16.30;99.90
3752;DHT22;50827;47.014;7.652;2022-08-21T05:37:33;16.30;99.90
3752;DHT22;50827;47.014;7.652;2022-08-21T05:40:00;16.30;99.90
3752;DHT22;50827;47.014;7.652;2022-08-21T05:42:46;16.40;99.90
3752;DHT22;50827;47.014;7.652;2022-08-21T05:45:22;16.30;99.90
3752;DHT22;50827;47.014;7.652;2022-08-21T05:48:13;16.30;99.90
3752;DHT22;50827;47.014;7.652;2022-08-21T05:50:40;16.40;99.90
3752;DHT22;50827;47.014;7.652;2022-08-21T05:53:07;16.50;99.90
3752;DHT22;50827;47.014;7.652;2022-08-21T05:55:36;16.50;99.90
3752;DHT22;50827;47.014;7.652;2022-08-21T05:58:10;16.60;99.90
3752;DHT22;50827;47.014;7.652;2022-08-21T06:00:37;16.60;99.90
3752;DHT22;50827;47.014;7.652;2022-08-21T06:03:04;16.60;99.90
3752;DHT22;50827;47.014;7.652;2022-08-21T06:05:30;16.60;99.90
3752;DHT22;50827;47.014;7.652;2022-08-21T06:08:03;16.70;99.90
3752;DHT22;50827;47.014;7.652;2022-08-21T06:10:30;16.80;99.90
3752;DHT22;50827;47.014;7.652;2022-08-21T06:12:57;16.80;99.90
3752;DHT22;50827;47.014;7.652;2022-08-21T06:15:25;16.90;99.90
3752;DHT22;50827;47.014;7.652;2022-08-21T06:17:53;16.90;99.90
3752;DHT22;50827;47.014;7.652;2022-08-21T06:20:23;16.90;99.90
3752;DHT22;50827;47.014;7.652;2022-08-21T06:22:50;16.90;99.90
3752;DHT22;50827;47.014;7.652;2022-08-21T06:25:17;16.90;99.90
3752;DHT22;50827;47.014;7.652;2022-08-21T06:27:45;17.00;99.90
3752;DHT22;50827;47.014;7.652;2022-08-21T06:30:12;17.00;99.90
3752;DHT22;50827;47.014;7.652;2022-08-21T06:32:39;17.00;99.90
3752;DHT22;50827;47.014;7.652;2022-08-21T06:35:06;17.10;99.90
3752;DHT22;50827;47.014;7.652;2022-08-21T06:37:33;17.20;99.90
3752;DHT22;50827;47.014;7.652;2022-08-21T06:40:00;17.20;99.90
3752;DHT22;50827;47.014;7.652;2022-08-21T06:42:27;17.30;99.90
3752;DHT22;50827;47.014;7.652;2022-08-21T06:44:54;17.30;99.90
3752;DHT22;50827;47.014;7.652;2022-08-21T06:47:21;17.40;99.90
3752;DHT22;50827;47.014;7.652;2022-08-21T06:49:48;17.50;99.90
3752;DHT22;50827;47.014;7.652;2022-08-21T06:52:15;17.60;99.90
3752;DHT22;50827;47.014;7.652;2022-08-21T06:54:42;17.70;99.90
3752;DHT22;50827;47.014;7.652;2022-08-21T06:57:09;17.70;99.90
3752;DHT22;50827;47.014;7.652;2022-08-21T06:59:36;17.80;99.90
3752;DHT22;50827;47.014;7.652;2022-08-21T07:02:03;17.90;99.90
3752;DHT22;50827;47.014;7.652;2022-08-21T07:04:29;17.80;99.90
3752;DHT22;50827;47.014;7.652;2022-08-21T07:06:56;18.00;99.90
3752;DHT22;50827;47.014;7.652;2022-08-21T07:09:23;18.10;99.90
3752;DHT22;50827;47.014;7.652;2022-08-21T07:11:53;18.10;99.90
3752;DHT22;50827;47.014;7.652;2022-08-21T07:14:20;18.20;99.90
3752;DHT22;50827;47.014;7.652;2022-08-21T07:16:48;18.20;99.90
3752;DHT22;50827;47.014;7.652;2022-08-21T07:19:15;18.20;99.90
3752;DHT22;50827;47.014;7.652;2022-08-21T07:21:41;18.30;99.90
3752;DHT22;50827;47.014;7.652;2022-08-21T07:24:08;18.30;99.90
3752;DHT22;50827;47.014;7.652;2022-08-21T07:26:35;18.40;99.90
3752;DHT22;50827;47.014;7.652;2022-08-21T07:29:03;18.50;99.90
3752;DHT22;50827;47.014;7.652;2022-08-21T07:31:30;18.50;99.90
3752;DHT22;50827;47.014;7.652;2022-08-21T07:33:57;18.50;99.90
3752;DHT22;50827;47.014;7.652;2022-08-21T07:36:24;18.60;99.90
3752;DHT22;50827;47.014;7.652;2022-08-21T07:38:51;18.70;99.90
3752;DHT22;50827;47.014;7.652;2022-08-21T07:41:24;18.70;99.90
3752;DHT22;50827;47.014;7.652;2022-08-21T07:43:51;18.70;99.90
3752;DHT22;50827;47.014;7.652;2022-08-21T07:46:19;18.80;99.90
3752;DHT22;50827;47.014;7.652;2022-08-21T07:48:46;18.80;99.90
3752;DHT22;50827;47.014;7.652;2022-08-21T07:51:14;18.90;99.90
3752;DHT22;50827;47.014;7.652;2022-08-21T07:53:41;19.00;99.90
3752;DHT22;50827;47.014;7.652;2022-08-21T07:56:09;19.00;99.90
3752;DHT22;50827;47.014;7.652;2022-08-21T07:58:37;19.00;99.90
3752;DHT22;50827;47.014;7.652;2022-08-21T08:01:05;19.10;99.90
3752;DHT22;50827;47.014;7.652;2022-08-21T08:03:33;19.10;99.90
3752;DHT22;50827;47.014;7.652;2022-08-21T08:06:00;19.30;99.90
3752;DHT22;50827;47.014;7.652;2022-08-21T08:08:27;19.30;99.90
3752;DHT22;50827;47.014;7.652;2022-08-21T08:10:56;19.30;99.90
3752;DHT22;50827;47.014;7.652;2022-08-21T08:13:24;19.30;99.90
3752;DHT22;50827;47.014;7.652;2022-08-21T08:15:51;19.30;99.90
3752;DHT22;50827;47.014;7.652;2022-08-21T08:18:18;19.30;99.90
3752;DHT22;50827;47.014;7.652;2022-08-21T08:20:45;19.40;99.90
3752;DHT22;50827;47.014;7.652;2022-08-21T08:23:13;19.40;99.90
3752;DHT22;50827;47.014;7.652;2022-08-21T08:25:40;19.50;99.90
3752;DHT22;50827;47.014;7.652;2022-08-21T08:28:07;19.40;99.90
3752;DHT22;50827;47.014;7.652;2022-08-21T08:30:45;19.50;99.90
3752;DHT22;50827;47.014;7.652;2022-08-21T08:33:13;19.60;99.90
3752;DHT22;50827;47.014;7.652;2022-08-21T08:35:45;19.70;99.90
3752;DHT22;50827;47.014;7.652;2022-08-21T08:38:14;19.80;99.90
3752;DHT22;50827;47.014;7.652;2022-08-21T08:40:55;19.90;99.90
3752;DHT22;50827;47.014;7.652;2022-08-21T08:43:28;20.00;99.90
3752;DHT22;50827;47.014;7.652;2022-08-21T08:45:56;20.00;99.90
3752;DHT22;50827;47.014;7.652;2022-08-21T08:48:50;20.10;99.90
3752;DHT22;50827;47.014;7.652;2022-08-21T08:51:26;20.10;99.90
3752;DHT22;50827;47.014;7.652;2022-08-21T08:54:00;20.20;99.90
3752;DHT22;50827;47.014;7.652;2022-08-21T08:56:33;20.30;99.90
3752;DHT22;50827;47.014;7.652;2022-08-21T08:59:49;20.40;99.90
3752;DHT22;50827;47.014;7.652;2022-08-21T09:01:55;20.50;99.90
3752;DHT22;50827;47.014;7.652;2022-08-21T09:04:26;20.50;99.90
3752;DHT22;50827;47.014;7.652;2022-08-21T09:07:01;20.40;99.90
3752;DHT22;50827;47.014;7.652;2022-08-21T09:12:50;20.30;99.90
3752;DHT22;50827;47.014;7.652;2022-08-21T09:21:07;20.60;99.90
3752;DHT22;50827;47.014;7.652;2022-08-21T09:23:49;20.90;99.90
3752;DHT22;50827;47.014;7.652;2022-08-21T09:26:23;20.90;99.90
3752;DHT22;50827;47.014;7.652;2022-08-21T09:28:58;21.00;99.90
3752;DHT22;50827;47.014;7.652;2022-08-21T09:31:33;21.10;99.90
3752;DHT22;50827;47.014;7.652;2022-08-21T09:34:07;21.20;99.90
3752;DHT22;50827;47.014;7.652;2022-08-21T09:36:43;21.30;99.90
3752;DHT22;50827;47.014;7.652;2022-08-21T09:39:12;21.30;99.90
3752;DHT22;50827;47.014;7.652;2022-08-21T09:41:39;21.40;99.90
3752;DHT22;50827;47.014;7.652;2022-08-21T09:44:08;21.50;99.90
3752;DHT22;50827;47.014;7.652;2022-08-21T09:46:35;21.50;99.90
3752;DHT22;50827;47.014;7.652;2022-08-21T09:49:03;21.50;99.90
3752;DHT22;50827;47.014;7.652;2022-08-21T09:51:35;21.60;99.90
3752;DHT22;50827;47.014;7.652;2022-08-21T09:56:39;21.70;99.90
3752;DHT22;50827;47.014;7.652;2022-08-21T09:59:30;21.70;99.90
3752;DHT22;50827;47.014;7.652;2022-08-21T10:02:27;21.90;99.90
3752;DHT22;50827;47.014;7.652;2022-08-21T10:05:03;22.00;99.90
3752;DHT22;50827;47.014;7.652;2022-08-21T10:07:36;22.00;99.90
3752;DHT22;50827;47.014;7.652;2022-08-21T10:10:31;22.10;99.90
3752;DHT22;50827;47.014;7.652;2022-08-21T10:13:16;22.20;99.90
3752;DHT22;50827;47.014;7.652;2022-08-21T10:18:44;22.20;99.90
3752;DHT22;50827;47.014;7.652;2022-08-21T10:21:26;22.30;99.90
3752;DHT22;50827;47.014;7.652;2022-08-21T10:29:57;22.40;99.90
3752;DHT22;50827;47.014;7.652;2022-08-21T10:35:22;22.40;99.90
3752;DHT22;50827;47.014;7.652;2022-08-21T10:38:05;22.40;99.90
3752;DHT22;50827;47.014;7.652;2022-08-21T10:57:05;22.60;99.90
3752;DHT22;50827;47.014;7.652;2022-08-21T10:59:41;22.70;99.90
3752;DHT22;50827;47.014;7.652;2022-08-21T11:02:22;22.80;99.90
3752;DHT22;50827;47.014;7.652;2022-08-21T11:05:00;22.80;99.90
3752;DHT22;50827;47.014;7.652;2022-08-21T11:10:13;23.00;99.90
3752;DHT22;50827;47.014;7.652;2022-08-21T11:12:46;23.00;99.90
3752;DHT22;50827;47.014;7.652;2022-08-21T11:18:34;23.00;99.90
3752;DHT22;50827;47.014;7.652;2022-08-21T11:21:22;23.00;99.90
3752;DHT22;50827;47.014;7.652;2022-08-21T11:24:30;23.00;99.90
3752;DHT22;50827;47.014;7.652;2022-08-21T11:27:03;22.90;99.90
3752;DHT22;50827;47.014;7.652;2022-08-21T11:29:38;22.90;99.90
3752;DHT22;50827;47.014;7.652;2022-08-21T11:32:43;22.80;99.90
3752;DHT22;50827;47.014;7.652;2022-08-21T11:51:20;23.00;99.90
3752;DHT22;50827;47.014;7.652;2022-08-21T11:53:56;22.90;99.90
3752;DHT22;50827;47.014;7.652;2022-08-21T11:56:39;22.90;99.90
3752;DHT22;50827;47.014;7.652;2022-08-21T11:59:13;23.10;99.90
3752;DHT22;50827;47.014;7.652;2022-08-21T12:01:45;23.20;99.90
3752;DHT22;50827;47.014;7.652;2022-08-21T12:04:22;23.30;99.90
3752;DHT22;50827;47.014;7.652;2022-08-21T12:06:52;23.40;99.90
3752;DHT22;50827;47.014;7.652;2022-08-21T12:14:48;23.70;99.90
3752;DHT22;50827;47.014;7.652;2022-08-21T12:17:23;23.50;99.90
3752;DHT22;50827;47.014;7.652;2022-08-21T12:19:58;23.40;99.90
3752;DHT22;50827;47.014;7.652;2022-08-21T12:22:39;23.40;99.90
3752;DHT22;50827;47.014;7.652;2022-08-21T12:25:16;23.30;99.90
3752;DHT22;50827;47.014;7.652;2022-08-21T12:27:53;23.20;99.90
3752;DHT22;50827;47.014;7.652;2022-08-21T12:30:34;23.10;99.90
3752;DHT22;50827;47.014;7.652;2022-08-21T12:33:04;23.10;99.90
3752;DHT22;50827;47.014;7.652;2022-08-21T12:35:39;23.20;99.90
3752;DHT22;50827;47.014;7.652;2022-08-21T12:38:22;23.40;99.90
3752;DHT22;50827;47.014;7.652;2022-08-21T12:41:06;23.40;99.90
3752;DHT22;50827;47.014;7.652;2022-08-21T12:43:50;23.40;99.90
3752;DHT22;50827;47.014;7.652;2022-08-21T12:46:22;23.40;99.90
3752;DHT22;50827;47.014;7.652;2022-08-21T12:48:56;23.30;99.90
3752;DHT22;50827;47.014;7.652;2022-08-21T12:51:31;23.30;99.90
3752;DHT22;50827;47.014;7.652;2022-08-21T12:54:00;23.20;99.90
3752;DHT22;50827;47.014;7.652;2022-08-21T12:56:32;23.20;99.90
3752;DHT22;50827;47.014;7.652;2022-08-21T12:59:06;23.20;99.90
3752;DHT22;50827;47.014;7.652;2022-08-21T13:01:39;23.20;99.90
3752;DHT22;50827;47.014;7.652;2022-08-21T13:04:14;23.20;99.90
3752;DHT22;50827;47.014;7.652;2022-08-21T13:06:49;23.20;99.90
3752;DHT22;50827;47.014;7.652;2022-08-21T13:09:21;23.40;99.90
3752;DHT22;50827;47.014;7.652;2022-08-21T13:11:50;23.50;99.90
3752;DHT22;50827;47.014;7.652;2022-08-21T13:14:39;23.60;99.90
3752;DHT22;50827;47.014;7.652;2022-08-21T13:17:16;23.70;99.90
3752;DHT22;50827;47.014;7.652;2022-08-21T13:20:00;23.80;99.90
3752;DHT22;50827;47.014;7.652;2022-08-21T13:22:28;24.00;99.90
3752;DHT22;50827;47.014;7.652;2022-08-21T13:25:01;24.00;99.90
3752;DHT22;50827;47.014;7.652;2022-08-21T13:27:33;24.00;99.90
3752;DHT22;50827;47.014;7.652;2022-08-21T13:32:37;24.00;99.90
3752;DHT22;50827;47.014;7.652;2022-08-21T13:35:13;24.00;99.90
3752;DHT22;50827;47.014;7.652;2022-08-21T13:37:42;24.10;99.90
3752;DHT22;50827;47.014;7.652;2022-08-21T13:40:14;24.20;99.90
3752;DHT22;50827;47.014;7.652;2022-08-21T13:42:43;24.20;99.90
3752;DHT22;50827;47.014;7.652;2022-08-21T13:45:22;24.30;99.90
3752;DHT22;50827;47.014;7.652;2022-08-21T13:47:51;24.40;99.90
3752;DHT22;50827;47.014;7.652;2022-08-21T13:50:21;24.40;99.90
3752;DHT22;50827;47.014;7.652;2022-08-21T13:56:22;24.40;99.90
3752;DHT22;50827;47.014;7.652;2022-08-21T13:58:50;24.50;99.90
3752;DHT22;50827;47.014;7.652;2022-08-21T14:01:30;24.60;99.90
3752;DHT22;50827;47.014;7.652;2022-08-21T14:04:05;24.60;99.90
3752;DHT22;50827;47.014;7.652;2022-08-21T14:06:36;24.60;99.90
3752;DHT22;50827;47.014;7.652;2022-08-21T14:11:46;24.70;99.90
3752;DHT22;50827;47.014;7.652;2022-08-21T14:14:25;24.60;99.90
3752;DHT22;50827;47.014;7.652;2022-08-21T14:16:56;24.60;99.90
3752;DHT22;50827;47.014;7.652;2022-08-21T14:19:35;24.60;99.90
3752;DHT22;50827;47.014;7.652;2022-08-21T14:27:32;24.60;99.90
3752;DHT22;50827;47.014;7.652;2022-08-21T14:30:10;24.70;99.90
3752;DHT22;50827;47.014;7.652;2022-08-21T14:32:40;24.60;99.90
3752;DHT22;50827;47.014;7.652;2022-08-21T14:35:11;24.70;99.90
3752;DHT22;50827;47.014;7.652;2022-08-21T14:37:41;24.60;99.90
3752;DHT22;50827;47.014;7.652;2022-08-21T14:40:09;24.60;99.90
3752;DHT22;50827;47.014;7.652;2022-08-21T14:42:41;24.70;99.90
3752;DHT22;50827;47.014;7.652;2022-08-21T14:45:16;24.70;99.90
3752;DHT22;50827;47.014;7.652;2022-08-21T14:47:49;24.80;99.90
3752;DHT22;50827;47.014;7.652;2022-08-21T14:50:16;24.80;99.90
3752;DHT22;50827;47.014;7.652;2022-08-21T14:52:42;24.80;99.90
3752;DHT22;50827;47.014;7.652;2022-08-21T14:55:13;24.80;99.90
3752;DHT22;50827;47.014;7.652;2022-08-21T14:57:47;24.80;99.90
3752;DHT22;50827;47.014;7.652;2022-08-21T15:00:18;24.90;99.90
3752;DHT22;50827;47.014;7.652;2022-08-21T15:02:46;25.00;99.90
3752;DHT22;50827;47.014;7.652;2022-08-21T15:05:15;25.00;99.90
3752;DHT22;50827;47.014;7.652;2022-08-21T15:07:58;25.00;99.90
3752;DHT22;50827;47.014;7.652;2022-08-21T15:10:25;24.90;99.90
3752;DHT22;50827;47.014;7.652;2022-08-21T15:12:52;24.90;99.90
3752;DHT22;50827;47.014;7.652;2022-08-21T15:15:19;25.00;99.90
3752;DHT22;50827;47.014;7.652;2022-08-21T15:17:45;25.00;99.90
3752;DHT22;50827;47.014;7.652;2022-08-21T15:20:14;24.90;99.90
3752;DHT22;50827;47.014;7.652;2022-08-21T15:22:41;24.90;99.90
3752;DHT22;50827;47.014;7.652;2022-08-21T15:25:13;24.90;99.90
3752;DHT22;50827;47.014;7.652;2022-08-21T15:27:40;24.90;99.90
3752;DHT22;50827;47.014;7.652;2022-08-21T15:30:07;25.00;99.90
3752;DHT22;50827;47.014;7.652;2022-08-21T15:32:34;24.90;99.90
3752;DHT22;50827;47.014;7.652;2022-08-21T15:35:01;25.00;99.90
3752;DHT22;50827;47.014;7.652;2022-08-21T15:37:28;25.00;99.90
3752;DHT22;50827;47.014;7.652;2022-08-21T15:39:55;25.00;99.90
3752;DHT22;50827;47.014;7.652;2022-08-21T15:42:22;25.00;99.90
3752;DHT22;50827;47.014;7.652;2022-08-21T15:44:51;25.10;99.90
3752;DHT22;50827;47.014;7.652;2022-08-21T15:47:22;25.10;99.90
3752;DHT22;50827;47.014;7.652;2022-08-21T15:49:50;25.10;99.90
3752;DHT22;50827;47.014;7.652;2022-08-21T15:52:19;25.10;99.90
3752;DHT22;50827;47.014;7.652;2022-08-21T15:54:47;25.10;99.90
3752;DHT22;50827;47.014;7.652;2022-08-21T15:57:16;25.00;99.90
3752;DHT22;50827;47.014;7.652;2022-08-21T15:59:48;25.00;99.90
3752;DHT22;50827;47.014;7.652;2022-08-21T16:02:22;25.00;99.90
3752;DHT22;50827;47.014;7.652;2022-08-21T16:04:49;25.00;99.90
3752;DHT22;50827;47.014;7.652;2022-08-21T16:07:16;24.90;99.90
3752;DHT22;50827;47.014;7.652;2022-08-21T16:09:43;24.90;99.90
3752;DHT22;50827;47.014;7.652;2022-08-21T16:12:17;24.90;99.90
3752;DHT22;50827;47.014;7.652;2022-08-21T16:14:46;24.90;99.90
3752;DHT22;50827;47.014;7.652;2022-08-21T16:17:13;24.90;99.90
3752;DHT22;50827;47.014;7.652;2022-08-21T16:19:39;24.90;99.90
3752;DHT22;50827;47.014;7.652;2022-08-21T16:22:06;24.90;99.90
3752;DHT22;50827;47.014;7.652;2022-08-21T16:24:33;25.00;99.90
3752;DHT22;50827;47.014;7.652;2022-08-21T16:27:02;25.00;99.90
3752;DHT22;50827;47.014;7.652;2022-08-21T16:29:35;24.90;99.90
3752;DHT22;50827;47.014;7.652;2022-08-21T16:32:02;24.90;99.90
3752;DHT22;50827;47.014;7.652;2022-08-21T16:34:30;24.90;99.90
3752;DHT22;50827;47.014;7.652;2022-08-21T16:36:57;24.90;99.90
3752;DHT22;50827;47.014;7.652;2022-08-21T16:39:23;24.90;99.90
3752;DHT22;50827;47.014;7.652;2022-08-21T16:41:50;24.80;99.90
3752;DHT22;50827;47.014;7.652;2022-08-21T16:44:21;24.80;99.90
3752;DHT22;50827;47.014;7.652;2022-08-21T16:46:48;24.80;99.90
3752;DHT22;50827;47.014;7.652;2022-08-21T16:49:15;24.80;99.90
3752;DHT22;50827;47.014;7.652;2022-08-21T16:51:42;24.70;99.90
3752;DHT22;50827;47.014;7.652;2022-08-21T16:54:10;24.60;99.90
3752;DHT22;50827;47.014;7.652;2022-08-21T16:56:38;24.60;99.90
3752;DHT22;50827;47.014;7.652;2022-08-21T16:59:10;24.50;99.90
3752;DHT22;50827;47.014;7.652;2022-08-21T17:01:38;24.40;99.90
3752;DHT22;50827;47.014;7.652;2022-08-21T17:04:05;24.40;99.90
3752;DHT22;50827;47.014;7.652;2022-08-21T17:06:32;24.40;99.90
3752;DHT22;50827;47.014;7.652;2022-08-21T17:08:59;24.40;99.90
3752;DHT22;50827;47.014;7.652;2022-08-21T17:11:37;24.40;99.90
3752;DHT22;50827;47.014;7.652;2022-08-21T17:14:13;24.40;99.90
3752;DHT22;50827;47.014;7.652;2022-08-21T17:16:43;24.30;99.90
3752;DHT22;50827;47.014;7.652;2022-08-21T17:19:11;24.30;99.90
3752;DHT22;50827;47.014;7.652;2022-08-21T17:21:38;24.30;99.90
3752;DHT22;50827;47.014;7.652;2022-08-21T17:24:06;24.30;99.90
3752;DHT22;50827;47.014;7.652;2022-08-21T17:26:33;24.30;99.90
3752;DHT22;50827;47.014;7.652;2022-08-21T17:29:00;24.30;99.90
3752;DHT22;50827;47.014;7.652;2022-08-21T17:31:27;24.20;99.90